sensor_id;sensor_type;location;lat;lon;timestamp;temperature;humidity
20911;DHT22;10615;42.702;23.314;2024-01-25T00:00:05;5.60;83.70
20911;DHT22;10615;42.702;23.314;2024-01-25T00:01:06;5.60;83.70
20911;DHT22;10615;42.702;23.314;2024-01-25T00:02:07;5.60;83.70
20911;DHT22;10615;42.702;23.314;2024-01-25T00:03:07;5.60;83.80
20911;DHT22;10615;42.702;23.314;2024-01-25T00:04:09;5.60;83.80
20911;DHT22;10615;42.702;23.314;2024-01-25T00:05:10;5.60;83.80
20911;DHT22;10615;42.702;23.314;2024-01-25T00:06:11;5.60;83.80
20911;DHT22;10615;42.702;23.314;2024-01-25T00:07:12;5.70;83.90
20911;DHT22;10615;42.702;23.314;2024-01-25T00:08:12;5.70;83.90
20911;DHT22;10615;42.702;23.314;2024-01-25T00:09:13;5.70;83.80
20911;DHT22;10615;42.702;23.314;2024-01-25T00:10:16;5.70;83.80
20911;DHT22;10615;42.702;23.314;2024-01-25T00:11:17;5.70;83.90
20911;DHT22;10615;42.702;23.314;2024-01-25T00:12:18;5.70;83.90
20911;DHT22;10615;42.702;23.314;2024-01-25T00:13:19;5.70;83.90
20911;DHT22;10615;42.702;23.314;2024-01-25T00:14:19;5.70;83.90
20911;DHT22;10615;42.702;23.314;2024-01-25T00:15:20;5.70;83.90
20911;DHT22;10615;42.702;23.314;2024-01-25T00:16:21;5.70;83.90
20911;DHT22;10615;42.702;23.314;2024-01-25T00:17:22;5.70;83.90
20911;DHT22;10615;42.702;23.314;2024-01-25T00:18:23;5.70;83.80
20911;DHT22;10615;42.702;23.314;2024-01-25T00:19:23;5.70;83.70
20911;DHT22;10615;42.702;23.314;2024-01-25T00:20:24;5.70;83.60
20911;DHT22;10615;42.702;23.314;2024-01-25T00:21:25;5.70;83.50
20911;DHT22;10615;42.702;23.314;2024-01-25T00:22:25;5.70;83.30
20911;DHT22;10615;42.702;23.314;2024-01-25T00:23:26;5.70;83.10
20911;DHT22;10615;42.702;23.314;2024-01-25T00:24:27;5.70;83.00
20911;DHT22;10615;42.702;23.314;2024-01-25T00:25:28;5.70;82.90
20911;DHT22;10615;42.702;23.314;2024-01-25T00:26:29;5.70;82.70
20911;DHT22;10615;42.702;23.314;2024-01-25T00:27:30;5.70;82.70
20911;DHT22;10615;42.702;23.314;2024-01-25T00:28:30;5.70;82.60
20911;DHT22;10615;42.702;23.314;2024-01-25T00:29:31;5.70;82.50
20911;DHT22;10615;42.702;23.314;2024-01-25T00:30:34;5.70;82.40
20911;DHT22;10615;42.702;23.314;2024-01-25T00:31:35;5.80;82.40
20911;DHT22;10615;42.702;23.314;2024-01-25T00:32:36;5.70;82.20
20911;DHT22;10615;42.702;23.314;2024-01-25T00:33:36;5.70;82.10
20911;DHT22;10615;42.702;23.314;2024-01-25T00:34:37;5.70;82.10
20911;DHT22;10615;42.702;23.314;2024-01-25T00:35:38;5.80;82.10
20911;DHT22;10615;42.702;23.314;2024-01-25T00:36:39;5.70;82.00
20911;DHT22;10615;42.702;23.314;2024-01-25T00:37:41;5.70;82.00
20911;DHT22;10615;42.702;23.314;2024-01-25T00:38:42;5.70;82.00
20911;DHT22;10615;42.702;23.314;2024-01-25T00:39:43;5.70;81.90
20911;DHT22;10615;42.702;23.314;2024-01-25T00:40:44;5.70;82.00
20911;DHT22;10615;42.702;23.314;2024-01-25T00:41:47;5.70;82.00
20911;DHT22;10615;42.702;23.314;2024-01-25T00:42:50;5.70;82.10
20911;DHT22;10615;42.702;23.314;2024-01-25T00:43:54;5.80;82.10
20911;DHT22;10615;42.702;23.314;2024-01-25T00:44:55;5.80;82.10
20911;DHT22;10615;42.702;23.314;2024-01-25T00:45:56;5.80;82.10
20911;DHT22;10615;42.702;23.314;2024-01-25T00:46:57;5.70;82.00
20911;DHT22;10615;42.702;23.314;2024-01-25T00:47:58;5.70;82.10
20911;DHT22;10615;42.702;23.314;2024-01-25T00:48:59;5.70;82.20
20911;DHT22;10615;42.702;23.314;2024-01-25T00:50:00;5.80;82.40
20911;DHT22;10615;42.702;23.314;2024-01-25T00:51:02;5.80;82.40
20911;DHT22;10615;42.702;23.314;2024-01-25T00:52:06;5.70;82.40
20911;DHT22;10615;42.702;23.314;2024-01-25T00:53:07;5.80;82.40
20911;DHT22;10615;42.702;23.314;2024-01-25T00:54:08;5.70;82.40
20911;DHT22;10615;42.702;23.314;2024-01-25T00:55:10;5.70;82.40
20911;DHT22;10615;42.702;23.314;2024-01-25T00:56:11;5.70;82.40
20911;DHT22;10615;42.702;23.314;2024-01-25T00:57:12;5.70;82.40
20911;DHT22;10615;42.702;23.314;2024-01-25T00:58:13;5.70;82.30
20911;DHT22;10615;42.702;23.314;2024-01-25T00:59:14;5.70;82.30
20911;DHT22;10615;42.702;23.314;2024-01-25T01:00:15;5.70;82.40
20911;DHT22;10615;42.702;23.314;2024-01-25T01:01:18;5.60;82.40
20911;DHT22;10615;42.702;23.314;2024-01-25T01:02:22;5.70;82.60
20911;DHT22;10615;42.702;23.314;2024-01-25T01:03:23;5.70;82.60
20911;DHT22;10615;42.702;23.314;2024-01-25T01:04:24;5.70;82.60
20911;DHT22;10615;42.702;23.314;2024-01-25T01:05:26;5.70;82.60
20911;DHT22;10615;42.702;23.314;2024-01-25T01:06:27;5.70;82.50
20911;DHT22;10615;42.702;23.314;2024-01-25T01:07:28;5.70;82.50
20911;DHT22;10615;42.702;23.314;2024-01-25T01:08:29;5.70;82.50
20911;DHT22;10615;42.702;23.314;2024-01-25T01:09:30;5.80;82.50
20911;DHT22;10615;42.702;23.314;2024-01-25T01:10:31;5.80;82.30
20911;DHT22;10615;42.702;23.314;2024-01-25T01:11:31;5.80;82.10
20911;DHT22;10615;42.702;23.314;2024-01-25T01:12:32;5.80;82.00
20911;DHT22;10615;42.702;23.314;2024-01-25T01:13:33;5.80;81.80
20911;DHT22;10615;42.702;23.314;2024-01-25T01:14:34;5.90;81.80
20911;DHT22;10615;42.702;23.314;2024-01-25T01:15:35;5.90;81.70
20911;DHT22;10615;42.702;23.314;2024-01-25T01:16:35;5.90;81.60
20911;DHT22;10615;42.702;23.314;2024-01-25T01:17:36;5.90;81.50
20911;DHT22;10615;42.702;23.314;2024-01-25T01:18:37;5.90;81.40
20911;DHT22;10615;42.702;23.314;2024-01-25T01:19:38;5.90;81.40
20911;DHT22;10615;42.702;23.314;2024-01-25T01:20:39;5.90;81.30
20911;DHT22;10615;42.702;23.314;2024-01-25T01:21:40;5.90;81.10
20911;DHT22;10615;42.702;23.314;2024-01-25T01:22:44;5.90;81.10
20911;DHT22;10615;42.702;23.314;2024-01-25T01:23:45;5.90;81.00
20911;DHT22;10615;42.702;23.314;2024-01-25T01:24:45;5.90;80.90
20911;DHT22;10615;42.702;23.314;2024-01-25T01:25:46;5.90;80.90
20911;DHT22;10615;42.702;23.314;2024-01-25T01:26:47;5.90;80.90
20911;DHT22;10615;42.702;23.314;2024-01-25T01:27:49;5.90;80.90
20911;DHT22;10615;42.702;23.314;2024-01-25T01:28:50;5.90;80.90
20911;DHT22;10615;42.702;23.314;2024-01-25T01:29:50;5.90;80.80
20911;DHT22;10615;42.702;23.314;2024-01-25T01:30:51;5.90;80.90
20911;DHT22;10615;42.702;23.314;2024-01-25T01:31:52;5.90;80.90
20911;DHT22;10615;42.702;23.314;2024-01-25T01:32:53;5.90;81.00
20911;DHT22;10615;42.702;23.314;2024-01-25T01:33:54;5.90;81.00
20911;DHT22;10615;42.702;23.314;2024-01-25T01:34:54;5.90;81.90
20911;DHT22;10615;42.702;23.314;2024-01-25T01:35:55;5.90;80.90
20911;DHT22;10615;42.702;23.314;2024-01-25T01:36:56;5.90;80.90
20911;DHT22;10615;42.702;23.314;2024-01-25T01:37:57;5.90;80.80
20911;DHT22;10615;42.702;23.314;2024-01-25T01:38:57;6.00;81.00
20911;DHT22;10615;42.702;23.314;2024-01-25T01:39:58;6.00;80.90
20911;DHT22;10615;42.702;23.314;2024-01-25T01:41:00;6.00;80.80
20911;DHT22;10615;42.702;23.314;2024-01-25T01:42:01;6.00;80.80
20911;DHT22;10615;42.702;23.314;2024-01-25T01:43:02;6.00;80.80
20911;DHT22;10615;42.702;23.314;2024-01-25T01:44:03;6.00;80.90
20911;DHT22;10615;42.702;23.314;2024-01-25T01:45:04;6.00;80.80
20911;DHT22;10615;42.702;23.314;2024-01-25T01:46:29;6.00;80.80
20911;DHT22;10615;42.702;23.314;2024-01-25T01:47:32;5.90;80.80
20911;DHT22;10615;42.702;23.314;2024-01-25T01:48:33;5.90;80.90
20911;DHT22;10615;42.702;23.314;2024-01-25T01:49:34;5.90;81.10
20911;DHT22;10615;42.702;23.314;2024-01-25T01:50:36;6.00;81.10
20911;DHT22;10615;42.702;23.314;2024-01-25T01:51:38;5.90;81.10
20911;DHT22;10615;42.702;23.314;2024-01-25T01:52:39;6.00;81.10
20911;DHT22;10615;42.702;23.314;2024-01-25T01:53:40;6.00;81.10
20911;DHT22;10615;42.702;23.314;2024-01-25T01:54:41;5.90;80.90
20911;DHT22;10615;42.702;23.314;2024-01-25T01:55:42;5.90;80.90
20911;DHT22;10615;42.702;23.314;2024-01-25T01:56:43;5.90;80.80
20911;DHT22;10615;42.702;23.314;2024-01-25T01:57:46;5.80;80.90
20911;DHT22;10615;42.702;23.314;2024-01-25T01:58:48;5.80;81.00
20911;DHT22;10615;42.702;23.314;2024-01-25T01:59:49;5.80;81.10
20911;DHT22;10615;42.702;23.314;2024-01-25T02:00:50;5.80;81.30
20911;DHT22;10615;42.702;23.314;2024-01-25T02:01:52;5.80;81.30
20911;DHT22;10615;42.702;23.314;2024-01-25T02:02:53;5.80;81.50
20911;DHT22;10615;42.702;23.314;2024-01-25T02:03:54;5.70;81.40
20911;DHT22;10615;42.702;23.314;2024-01-25T02:04:56;5.70;81.50
20911;DHT22;10615;42.702;23.314;2024-01-25T02:05:57;5.70;81.60
20911;DHT22;10615;42.702;23.314;2024-01-25T02:07:02;5.70;81.60
20911;DHT22;10615;42.702;23.314;2024-01-25T02:08:04;5.80;81.80
20911;DHT22;10615;42.702;23.314;2024-01-25T02:09:06;5.70;81.60
20911;DHT22;10615;42.702;23.314;2024-01-25T02:10:08;5.70;81.70
20911;DHT22;10615;42.702;23.314;2024-01-25T02:11:12;5.70;81.80
20911;DHT22;10615;42.702;23.314;2024-01-25T02:12:15;5.80;81.90
20911;DHT22;10615;42.702;23.314;2024-01-25T02:13:17;5.80;81.90
20911;DHT22;10615;42.702;23.314;2024-01-25T02:14:18;5.70;82.00
20911;DHT22;10615;42.702;23.314;2024-01-25T02:15:19;5.80;82.10
20911;DHT22;10615;42.702;23.314;2024-01-25T02:16:20;5.80;82.30
20911;DHT22;10615;42.702;23.314;2024-01-25T02:17:21;5.80;82.20
20911;DHT22;10615;42.702;23.314;2024-01-25T02:18:22;5.80;82.20
20911;DHT22;10615;42.702;23.314;2024-01-25T02:19:23;5.80;82.20
20911;DHT22;10615;42.702;23.314;2024-01-25T02:20:24;5.80;82.20
20911;DHT22;10615;42.702;23.314;2024-01-25T02:21:24;5.80;82.20
20911;DHT22;10615;42.702;23.314;2024-01-25T02:22:25;5.80;82.20
20911;DHT22;10615;42.702;23.314;2024-01-25T02:23:26;5.80;82.20
20911;DHT22;10615;42.702;23.314;2024-01-25T02:24:27;5.70;82.20
20911;DHT22;10615;42.702;23.314;2024-01-25T02:25:28;5.80;82.40
20911;DHT22;10615;42.702;23.314;2024-01-25T02:26:28;5.80;82.40
20911;DHT22;10615;42.702;23.314;2024-01-25T02:27:29;5.80;82.60
20911;DHT22;10615;42.702;23.314;2024-01-25T02:28:30;5.80;82.70
20911;DHT22;10615;42.702;23.314;2024-01-25T02:29:31;5.80;82.80
20911;DHT22;10615;42.702;23.314;2024-01-25T02:30:31;5.80;82.80
20911;DHT22;10615;42.702;23.314;2024-01-25T02:31:32;5.80;82.80
20911;DHT22;10615;42.702;23.314;2024-01-25T02:32:33;5.80;82.90
20911;DHT22;10615;42.702;23.314;2024-01-25T02:33:34;5.80;82.90
20911;DHT22;10615;42.702;23.314;2024-01-25T02:34:35;5.80;82.80
20911;DHT22;10615;42.702;23.314;2024-01-25T02:35:37;5.90;82.90
20911;DHT22;10615;42.702;23.314;2024-01-25T02:36:37;5.90;83.00
20911;DHT22;10615;42.702;23.314;2024-01-25T02:37:38;5.80;82.90
20911;DHT22;10615;42.702;23.314;2024-01-25T02:38:39;5.80;83.00
20911;DHT22;10615;42.702;23.314;2024-01-25T02:39:40;5.80;83.20
20911;DHT22;10615;42.702;23.314;2024-01-25T02:40:41;5.80;83.30
20911;DHT22;10615;42.702;23.314;2024-01-25T02:41:41;5.80;83.30
20911;DHT22;10615;42.702;23.314;2024-01-25T02:42:42;5.90;83.30
20911;DHT22;10615;42.702;23.314;2024-01-25T02:43:43;5.80;83.20
20911;DHT22;10615;42.702;23.314;2024-01-25T02:44:44;5.80;83.20
20911;DHT22;10615;42.702;23.314;2024-01-25T02:45:45;5.80;83.10
20911;DHT22;10615;42.702;23.314;2024-01-25T02:46:45;5.80;83.00
20911;DHT22;10615;42.702;23.314;2024-01-25T02:47:47;5.90;82.90
20911;DHT22;10615;42.702;23.314;2024-01-25T02:48:48;5.80;82.80
20911;DHT22;10615;42.702;23.314;2024-01-25T02:49:49;5.80;82.70
20911;DHT22;10615;42.702;23.314;2024-01-25T02:50:49;5.80;82.80
20911;DHT22;10615;42.702;23.314;2024-01-25T02:51:50;5.90;82.70
20911;DHT22;10615;42.702;23.314;2024-01-25T02:52:51;5.90;82.60
20911;DHT22;10615;42.702;23.314;2024-01-25T02:53:52;5.90;82.60
20911;DHT22;10615;42.702;23.314;2024-01-25T02:54:53;5.90;82.60
20911;DHT22;10615;42.702;23.314;2024-01-25T02:55:54;5.90;82.60
20911;DHT22;10615;42.702;23.314;2024-01-25T02:56:54;5.90;82.60
20911;DHT22;10615;42.702;23.314;2024-01-25T02:57:55;6.00;82.60
20911;DHT22;10615;42.702;23.314;2024-01-25T02:58:56;6.00;82.60
20911;DHT22;10615;42.702;23.314;2024-01-25T02:59:57;6.00;82.60
20911;DHT22;10615;42.702;23.314;2024-01-25T03:00:58;6.00;82.60
20911;DHT22;10615;42.702;23.314;2024-01-25T03:01:58;6.00;82.60
20911;DHT22;10615;42.702;23.314;2024-01-25T03:02:59;6.00;82.60
20911;DHT22;10615;42.702;23.314;2024-01-25T03:04:00;6.00;82.60
20911;DHT22;10615;42.702;23.314;2024-01-25T03:05:01;6.10;82.70
20911;DHT22;10615;42.702;23.314;2024-01-25T03:06:02;6.10;82.70
20911;DHT22;10615;42.702;23.314;2024-01-25T03:07:03;6.10;82.80
20911;DHT22;10615;42.702;23.314;2024-01-25T03:08:04;6.10;82.80
20911;DHT22;10615;42.702;23.314;2024-01-25T03:09:05;6.10;82.80
20911;DHT22;10615;42.702;23.314;2024-01-25T03:10:06;6.20;82.90
20911;DHT22;10615;42.702;23.314;2024-01-25T03:11:07;6.20;82.90
20911;DHT22;10615;42.702;23.314;2024-01-25T03:12:08;6.20;83.00
20911;DHT22;10615;42.702;23.314;2024-01-25T03:13:09;6.30;83.10
20911;DHT22;10615;42.702;23.314;2024-01-25T03:14:09;6.30;83.20
20911;DHT22;10615;42.702;23.314;2024-01-25T03:15:11;6.40;83.30
20911;DHT22;10615;42.702;23.314;2024-01-25T03:16:12;6.40;83.40
20911;DHT22;10615;42.702;23.314;2024-01-25T03:17:13;6.40;83.40
20911;DHT22;10615;42.702;23.314;2024-01-25T03:18:14;6.50;83.50
20911;DHT22;10615;42.702;23.314;2024-01-25T03:19:14;6.50;83.50
20911;DHT22;10615;42.702;23.314;2024-01-25T03:20:15;6.60;83.70
20911;DHT22;10615;42.702;23.314;2024-01-25T03:21:16;6.60;83.70
20911;DHT22;10615;42.702;23.314;2024-01-25T03:22:16;6.70;83.90
20911;DHT22;10615;42.702;23.314;2024-01-25T03:23:17;6.70;84.00
20911;DHT22;10615;42.702;23.314;2024-01-25T03:24:18;6.70;84.00
20911;DHT22;10615;42.702;23.314;2024-01-25T03:25:19;6.80;84.00
20911;DHT22;10615;42.702;23.314;2024-01-25T03:26:19;6.80;84.10
20911;DHT22;10615;42.702;23.314;2024-01-25T03:27:20;6.80;84.20
20911;DHT22;10615;42.702;23.314;2024-01-25T03:28:21;6.90;84.20
20911;DHT22;10615;42.702;23.314;2024-01-25T03:29:22;6.90;84.30
20911;DHT22;10615;42.702;23.314;2024-01-25T03:30:22;7.00;84.40
20911;DHT22;10615;42.702;23.314;2024-01-25T03:31:23;7.00;84.40
20911;DHT22;10615;42.702;23.314;2024-01-25T03:32:24;7.00;84.40
20911;DHT22;10615;42.702;23.314;2024-01-25T03:33:25;7.10;84.60
20911;DHT22;10615;42.702;23.314;2024-01-25T03:34:26;7.10;84.60
20911;DHT22;10615;42.702;23.314;2024-01-25T03:35:27;7.10;84.60
20911;DHT22;10615;42.702;23.314;2024-01-25T03:36:28;7.10;84.60
20911;DHT22;10615;42.702;23.314;2024-01-25T03:37:29;7.20;84.60
20911;DHT22;10615;42.702;23.314;2024-01-25T03:38:30;7.20;84.60
20911;DHT22;10615;42.702;23.314;2024-01-25T03:39:30;7.20;84.60
20911;DHT22;10615;42.702;23.314;2024-01-25T03:40:31;7.30;84.60
20911;DHT22;10615;42.702;23.314;2024-01-25T03:41:32;7.30;84.60
20911;DHT22;10615;42.702;23.314;2024-01-25T03:42:33;7.40;84.50
20911;DHT22;10615;42.702;23.314;2024-01-25T03:43:33;7.40;84.40
20911;DHT22;10615;42.702;23.314;2024-01-25T03:44:34;7.40;84.40
20911;DHT22;10615;42.702;23.314;2024-01-25T03:45:35;7.40;84.40
20911;DHT22;10615;42.702;23.314;2024-01-25T03:46:36;7.40;84.30
20911;DHT22;10615;42.702;23.314;2024-01-25T03:47:37;7.50;84.30
20911;DHT22;10615;42.702;23.314;2024-01-25T03:48:38;7.50;84.20
20911;DHT22;10615;42.702;23.314;2024-01-25T03:49:38;7.50;84.10
20911;DHT22;10615;42.702;23.314;2024-01-25T03:50:39;7.50;84.10
20911;DHT22;10615;42.702;23.314;2024-01-25T03:51:40;7.50;84.10
20911;DHT22;10615;42.702;23.314;2024-01-25T03:52:40;7.50;84.00
20911;DHT22;10615;42.702;23.314;2024-01-25T03:53:41;7.50;83.90
20911;DHT22;10615;42.702;23.314;2024-01-25T03:54:43;7.50;83.90
20911;DHT22;10615;42.702;23.314;2024-01-25T03:55:44;7.50;83.90
20911;DHT22;10615;42.702;23.314;2024-01-25T03:56:44;7.50;83.90
20911;DHT22;10615;42.702;23.314;2024-01-25T03:57:45;7.50;83.90
20911;DHT22;10615;42.702;23.314;2024-01-25T03:58:46;7.50;83.90
20911;DHT22;10615;42.702;23.314;2024-01-25T03:59:47;7.50;83.90
20911;DHT22;10615;42.702;23.314;2024-01-25T04:00:47;7.50;83.80
20911;DHT22;10615;42.702;23.314;2024-01-25T04:01:48;7.50;83.60
20911;DHT22;10615;42.702;23.314;2024-01-25T04:02:50;7.50;83.60
20911;DHT22;10615;42.702;23.314;2024-01-25T04:03:50;7.50;83.40
20911;DHT22;10615;42.702;23.314;2024-01-25T04:04:51;7.50;83.30
20911;DHT22;10615;42.702;23.314;2024-01-25T04:05:52;7.50;83.10
20911;DHT22;10615;42.702;23.314;2024-01-25T04:06:52;7.60;83.10
20911;DHT22;10615;42.702;23.314;2024-01-25T04:07:53;7.60;83.00
20911;DHT22;10615;42.702;23.314;2024-01-25T04:08:54;7.60;82.80
20911;DHT22;10615;42.702;23.314;2024-01-25T04:09:55;7.60;82.70
20911;DHT22;10615;42.702;23.314;2024-01-25T04:10:55;7.60;82.50
20911;DHT22;10615;42.702;23.314;2024-01-25T04:11:56;7.60;82.40
20911;DHT22;10615;42.702;23.314;2024-01-25T04:12:58;7.60;82.30
20911;DHT22;10615;42.702;23.314;2024-01-25T04:14:00;7.60;82.10
20911;DHT22;10615;42.702;23.314;2024-01-25T04:15:01;7.60;82.10
20911;DHT22;10615;42.702;23.314;2024-01-25T04:16:02;7.60;82.10
20911;DHT22;10615;42.702;23.314;2024-01-25T04:17:03;7.60;82.00
20911;DHT22;10615;42.702;23.314;2024-01-25T04:18:04;7.60;81.80
20911;DHT22;10615;42.702;23.314;2024-01-25T04:19:05;7.60;81.80
20911;DHT22;10615;42.702;23.314;2024-01-25T04:20:06;7.50;81.70
20911;DHT22;10615;42.702;23.314;2024-01-25T04:21:07;7.50;81.70
20911;DHT22;10615;42.702;23.314;2024-01-25T04:22:10;7.50;81.70
20911;DHT22;10615;42.702;23.314;2024-01-25T04:23:10;7.40;81.60
20911;DHT22;10615;42.702;23.314;2024-01-25T04:24:11;7.40;81.80
20911;DHT22;10615;42.702;23.314;2024-01-25T04:25:12;7.40;81.80
20911;DHT22;10615;42.702;23.314;2024-01-25T04:26:13;7.40;81.80
20911;DHT22;10615;42.702;23.314;2024-01-25T04:27:14;7.40;81.90
20911;DHT22;10615;42.702;23.314;2024-01-25T04:28:15;7.40;81.80
20911;DHT22;10615;42.702;23.314;2024-01-25T04:29:16;7.40;81.80
20911;DHT22;10615;42.702;23.314;2024-01-25T04:30:17;7.40;81.80
20911;DHT22;10615;42.702;23.314;2024-01-25T04:31:18;7.40;81.80
20911;DHT22;10615;42.702;23.314;2024-01-25T04:32:19;7.30;81.70
20911;DHT22;10615;42.702;23.314;2024-01-25T04:33:20;7.30;81.70
20911;DHT22;10615;42.702;23.314;2024-01-25T04:34:21;7.30;81.80
20911;DHT22;10615;42.702;23.314;2024-01-25T04:35:22;7.20;81.80
20911;DHT22;10615;42.702;23.314;2024-01-25T04:36:22;7.20;81.90
20911;DHT22;10615;42.702;23.314;2024-01-25T04:37:23;7.20;81.90
20911;DHT22;10615;42.702;23.314;2024-01-25T04:38:24;7.20;82.00
20911;DHT22;10615;42.702;23.314;2024-01-25T04:39:25;7.10;81.90
20911;DHT22;10615;42.702;23.314;2024-01-25T04:40:25;7.10;81.90
20911;DHT22;10615;42.702;23.314;2024-01-25T04:41:26;7.10;81.90
20911;DHT22;10615;42.702;23.314;2024-01-25T04:42:27;7.00;81.80
20911;DHT22;10615;42.702;23.314;2024-01-25T04:43:28;7.00;81.90
20911;DHT22;10615;42.702;23.314;2024-01-25T04:44:29;7.00;82.10
20911;DHT22;10615;42.702;23.314;2024-01-25T04:45:29;6.90;82.10
20911;DHT22;10615;42.702;23.314;2024-01-25T04:46:30;6.90;82.10
20911;DHT22;10615;42.702;23.314;2024-01-25T04:47:38;6.80;82.20
20911;DHT22;10615;42.702;23.314;2024-01-25T04:48:40;6.80;82.40
20911;DHT22;10615;42.702;23.314;2024-01-25T04:49:41;6.80;82.60
20911;DHT22;10615;42.702;23.314;2024-01-25T04:50:41;6.80;82.70
20911;DHT22;10615;42.702;23.314;2024-01-25T04:51:42;6.80;82.70
20911;DHT22;10615;42.702;23.314;2024-01-25T04:52:43;6.80;82.70
20911;DHT22;10615;42.702;23.314;2024-01-25T04:53:44;6.80;82.50
20911;DHT22;10615;42.702;23.314;2024-01-25T04:54:44;6.80;82.50
20911;DHT22;10615;42.702;23.314;2024-01-25T04:55:45;6.70;82.50
20911;DHT22;10615;42.702;23.314;2024-01-25T04:56:46;6.70;82.50
20911;DHT22;10615;42.702;23.314;2024-01-25T04:57:46;6.70;82.60
20911;DHT22;10615;42.702;23.314;2024-01-25T04:58:48;6.70;82.70
20911;DHT22;10615;42.702;23.314;2024-01-25T04:59:49;6.70;82.80
20911;DHT22;10615;42.702;23.314;2024-01-25T05:00:50;6.70;82.80
20911;DHT22;10615;42.702;23.314;2024-01-25T05:01:51;6.70;82.80
20911;DHT22;10615;42.702;23.314;2024-01-25T05:02:54;6.70;82.80
20911;DHT22;10615;42.702;23.314;2024-01-25T05:03:55;6.70;82.80
20911;DHT22;10615;42.702;23.314;2024-01-25T05:04:56;6.70;82.80
20911;DHT22;10615;42.702;23.314;2024-01-25T05:05:56;6.70;82.70
20911;DHT22;10615;42.702;23.314;2024-01-25T05:06:57;6.70;82.60
20911;DHT22;10615;42.702;23.314;2024-01-25T05:07:58;6.70;82.60
20911;DHT22;10615;42.702;23.314;2024-01-25T05:08:59;6.80;82.70
20911;DHT22;10615;42.702;23.314;2024-01-25T05:09:59;6.80;82.70
20911;DHT22;10615;42.702;23.314;2024-01-25T05:11:00;6.80;82.50
20911;DHT22;10615;42.702;23.314;2024-01-25T05:12:01;6.80;82.50
20911;DHT22;10615;42.702;23.314;2024-01-25T05:13:02;6.80;82.40
20911;DHT22;10615;42.702;23.314;2024-01-25T05:14:03;6.70;82.40
20911;DHT22;10615;42.702;23.314;2024-01-25T05:15:04;6.80;82.50
20911;DHT22;10615;42.702;23.314;2024-01-25T05:16:05;6.80;82.50
20911;DHT22;10615;42.702;23.314;2024-01-25T05:17:06;6.80;82.50
20911;DHT22;10615;42.702;23.314;2024-01-25T05:18:07;6.80;82.50
20911;DHT22;10615;42.702;23.314;2024-01-25T05:19:07;6.80;82.40
20911;DHT22;10615;42.702;23.314;2024-01-25T05:20:08;6.90;82.40
20911;DHT22;10615;42.702;23.314;2024-01-25T05:21:09;6.80;82.30
20911;DHT22;10615;42.702;23.314;2024-01-25T05:22:10;6.80;82.30
20911;DHT22;10615;42.702;23.314;2024-01-25T05:23:11;6.90;82.40
20911;DHT22;10615;42.702;23.314;2024-01-25T05:24:12;6.90;82.30
20911;DHT22;10615;42.702;23.314;2024-01-25T05:25:12;6.90;82.20
20911;DHT22;10615;42.702;23.314;2024-01-25T05:26:13;6.90;82.10
20911;DHT22;10615;42.702;23.314;2024-01-25T05:27:14;6.90;82.10
20911;DHT22;10615;42.702;23.314;2024-01-25T05:28:15;6.90;82.00
20911;DHT22;10615;42.702;23.314;2024-01-25T05:29:15;6.90;82.00
20911;DHT22;10615;42.702;23.314;2024-01-25T05:30:17;6.90;82.00
20911;DHT22;10615;42.702;23.314;2024-01-25T05:31:18;6.90;81.80
20911;DHT22;10615;42.702;23.314;2024-01-25T05:32:18;7.00;81.80
20911;DHT22;10615;42.702;23.314;2024-01-25T05:33:21;7.00;81.70
20911;DHT22;10615;42.702;23.314;2024-01-25T05:34:22;7.00;81.50
20911;DHT22;10615;42.702;23.314;2024-01-25T05:35:23;7.10;81.30
20911;DHT22;10615;42.702;23.314;2024-01-25T05:36:24;7.10;81.10
20911;DHT22;10615;42.702;23.314;2024-01-25T05:37:25;7.00;80.90
20911;DHT22;10615;42.702;23.314;2024-01-25T05:38:26;7.00;80.80
20911;DHT22;10615;42.702;23.314;2024-01-25T05:39:26;7.10;80.80
20911;DHT22;10615;42.702;23.314;2024-01-25T05:40:27;7.00;80.70
20911;DHT22;10615;42.702;23.314;2024-01-25T05:41:28;7.10;80.60
20911;DHT22;10615;42.702;23.314;2024-01-25T05:42:29;7.10;80.50
20911;DHT22;10615;42.702;23.314;2024-01-25T05:43:29;7.00;80.40
20911;DHT22;10615;42.702;23.314;2024-01-25T05:44:30;7.10;80.40
20911;DHT22;10615;42.702;23.314;2024-01-25T05:45:31;7.10;80.40
20911;DHT22;10615;42.702;23.314;2024-01-25T05:46:32;7.10;80.40
20911;DHT22;10615;42.702;23.314;2024-01-25T05:47:33;7.10;80.20
20911;DHT22;10615;42.702;23.314;2024-01-25T05:48:35;7.10;80.20
20911;DHT22;10615;42.702;23.314;2024-01-25T05:49:35;7.10;80.20
20911;DHT22;10615;42.702;23.314;2024-01-25T05:50:36;7.10;80.20
20911;DHT22;10615;42.702;23.314;2024-01-25T05:51:37;7.10;80.10
20911;DHT22;10615;42.702;23.314;2024-01-25T05:52:38;7.10;80.00
20911;DHT22;10615;42.702;23.314;2024-01-25T05:53:38;7.10;80.80
20911;DHT22;10615;42.702;23.314;2024-01-25T05:54:39;7.10;79.90
20911;DHT22;10615;42.702;23.314;2024-01-25T05:55:40;7.10;79.80
20911;DHT22;10615;42.702;23.314;2024-01-25T05:56:41;7.10;79.80
20911;DHT22;10615;42.702;23.314;2024-01-25T05:57:43;7.10;79.80
20911;DHT22;10615;42.702;23.314;2024-01-25T05:58:44;7.10;79.90
20911;DHT22;10615;42.702;23.314;2024-01-25T05:59:45;7.10;79.80
20911;DHT22;10615;42.702;23.314;2024-01-25T06:00:46;7.10;79.70
20911;DHT22;10615;42.702;23.314;2024-01-25T06:01:47;7.20;79.60
20911;DHT22;10615;42.702;23.314;2024-01-25T06:02:48;7.20;79.40
20911;DHT22;10615;42.702;23.314;2024-01-25T06:03:49;7.20;79.40
20911;DHT22;10615;42.702;23.314;2024-01-25T06:04:50;7.20;79.30
20911;DHT22;10615;42.702;23.314;2024-01-25T06:05:50;7.20;79.30
20911;DHT22;10615;42.702;23.314;2024-01-25T06:06:51;7.20;79.20
20911;DHT22;10615;42.702;23.314;2024-01-25T06:07:52;7.20;79.30
20911;DHT22;10615;42.702;23.314;2024-01-25T06:08:53;7.20;79.30
20911;DHT22;10615;42.702;23.314;2024-01-25T06:09:54;7.20;79.40
20911;DHT22;10615;42.702;23.314;2024-01-25T06:10:54;7.20;79.40
20911;DHT22;10615;42.702;23.314;2024-01-25T06:11:55;7.20;79.40
20911;DHT22;10615;42.702;23.314;2024-01-25T06:12:56;7.20;79.40
20911;DHT22;10615;42.702;23.314;2024-01-25T06:13:57;7.20;79.40
20911;DHT22;10615;42.702;23.314;2024-01-25T06:14:57;7.20;79.40
20911;DHT22;10615;42.702;23.314;2024-01-25T06:15:58;7.20;79.30
20911;DHT22;10615;42.702;23.314;2024-01-25T06:16:59;7.30;79.40
20911;DHT22;10615;42.702;23.314;2024-01-25T06:17:59;7.30;79.40
20911;DHT22;10615;42.702;23.314;2024-01-25T06:19:01;7.30;79.40
20911;DHT22;10615;42.702;23.314;2024-01-25T06:20:03;7.30;79.40
20911;DHT22;10615;42.702;23.314;2024-01-25T06:21:05;7.20;79.20
20911;DHT22;10615;42.702;23.314;2024-01-25T06:22:06;7.30;79.20
20911;DHT22;10615;42.702;23.314;2024-01-25T06:23:06;7.30;79.10
20911;DHT22;10615;42.702;23.314;2024-01-25T06:24:07;7.30;79.10
20911;DHT22;10615;42.702;23.314;2024-01-25T06:25:08;7.30;79.20